Time;durP1;ratioP1;P1;durP2;ratioP2;P2;SDS_P1;SDS_P2;PMS_P1;PMS_P2;Temp;Humidity;BMP_temperature;BMP_pressure;BME280_temperature;BME280_humidity;BME280_pressure;Samples;Min_cycle;Max_cycle;Signal;HPM_P1;HPM_P2
2022/08/07 00:00:47;;;;;;;6.07;1.98;;;;;;;;;;5052606;28;20075;-70
2022/08/07 00:03:13;;;;;;;4.45;1.85;;;;;;;;;;5056199;28;20027;-70
2022/08/07 00:05:39;;;;;;;5.97;2.42;;;;;;;;;;5056123;28;20416;-70
2022/08/07 00:08:06;;;;;;;5.13;2.22;;;;;;;;;;5056039;28;20070;-70
2022/08/07 00:10:32;;;;;;;4.65;2.13;;;;;;;;;;5056255;28;20025;-70
2022/08/07 00:12:59;;;;;;;5.82;2.20;;;;;;;;;;5055955;28;20036;-69
2022/08/07 00:15:25;;;;;;;4.03;2.10;;;;;;;;;;5055833;28;20147;-70
2022/08/07 00:17:51;;;;;;;5.40;2.03;;;;;;;;;;5056144;28;20074;-70
2022/08/07 00:20:17;;;;;;;4.88;2.40;;;;;;;;;;5055807;28;20103;-70
2022/08/07 00:22:43;;;;;;;5.07;2.55;;;;;;;;;;5055744;28;20032;-70
2022/08/07 00:25:10;;;;;;;5.63;2.10;;;;;;;;;;5055731;28;20025;-69
2022/08/07 00:27:36;;;;;;;4.50;2.00;;;;;;;;;;5055975;28;20035;-70
2022/08/07 00:30:03;;;;;;;5.28;2.13;;;;;;;;;;5055643;28;20025;-69
2022/08/07 00:32:29;;;;;;;4.38;2.20;;;;;;;;;;5056131;28;20083;-69
2022/08/07 00:34:55;;;;;;;7.25;2.47;;;;;;;;;;5055758;28;20029;-70
2022/08/07 00:37:21;;;;;;;4.32;2.50;;;;;;;;;;5037616;28;20060;-70
2022/08/07 00:39:47;;;;;;;4.30;2.20;;;;;;;;;;5055484;28;20053;-69
2022/08/07 00:42:13;;;;;;;3.90;2.17;;;;;;;;;;5055677;28;20017;-70
2022/08/07 00:44:39;;;;;;;7.72;2.15;;;;;;;;;;5055388;28;20548;-70
2022/08/07 00:47:07;;;;;;;5.95;2.15;;;;;;;;;;5055323;28;20025;-70
2022/08/07 00:49:33;;;;;;;6.75;2.55;;;;;;;;;;5037954;28;20397;-69
2022/08/07 00:51:59;;;;;;;3.30;2.08;;;;;;;;;;5055254;28;20028;-69
2022/08/07 00:54:25;;;;;;;4.80;2.40;;;;;;;;;;5054898;28;20048;-70
2022/08/07 00:56:51;;;;;;;4.88;2.15;;;;;;;;;;5037219;28;20440;-70
2022/08/07 00:59:19;;;;;;;4.25;2.53;;;;;;;;;;5055117;28;20021;-69
2022/08/07 01:01:45;;;;;;;5.00;2.40;;;;;;;;;;5054991;28;20028;-69
2022/08/07 01:04:11;;;;;;;4.68;1.98;;;;;;;;;;5054971;28;20029;-69
2022/08/07 01:06:37;;;;;;;4.15;2.10;;;;;;;;;;5037043;28;20454;-70
2022/08/07 01:09:03;;;;;;;5.05;2.20;;;;;;;;;;5054896;28;20116;-70
2022/08/07 01:11:30;;;;;;;5.70;2.55;;;;;;;;;;5054843;28;20025;-70
2022/08/07 01:13:56;;;;;;;4.35;2.10;;;;;;;;;;5036861;28;20025;-69
2022/08/07 01:16:22;;;;;;;3.05;2.00;;;;;;;;;;5054776;28;20075;-69
2022/08/07 01:18:48;;;;;;;4.32;2.00;;;;;;;;;;5054985;28;20017;-69
2022/08/07 01:21:16;;;;;;;7.82;2.30;;;;;;;;;;5054933;28;20025;-69
2022/08/07 01:23:42;;;;;;;5.70;2.20;;;;;;;;;;5054930;28;20043;-69
2022/08/07 01:26:11;;;;;;;3.80;1.98;;;;;;;;;;5054916;28;20037;-69
2022/08/07 01:28:38;;;;;;;6.10;2.00;;;;;;;;;;5054918;28;20104;-69
2022/08/07 01:31:05;;;;;;;5.00;2.00;;;;;;;;;;5054558;28;20021;-69
2022/08/07 01:33:31;;;;;;;3.88;1.90;;;;;;;;;;5036552;28;20021;-69
2022/08/07 01:35:59;;;;;;;4.85;2.10;;;;;;;;;;5054367;28;20032;-69
2022/08/07 01:38:25;;;;;;;3.13;2.25;;;;;;;;;;5036483;28;20477;-70
2022/08/07 01:40:53;;;;;;;4.50;2.42;;;;;;;;;;5054314;28;20032;-70
2022/08/07 01:43:19;;;;;;;5.38;2.90;;;;;;;;;;5054577;28;20044;-69
2022/08/07 01:45:46;;;;;;;4.63;2.35;;;;;;;;;;5054239;28;20025;-69
2022/08/07 01:48:12;;;;;;;8.15;2.25;;;;;;;;;;5054220;28;20108;-69
2022/08/07 01:50:39;;;;;;;3.70;2.22;;;;;;;;;;5054644;28;20071;-69
2022/08/07 01:53:06;;;;;;;5.88;2.30;;;;;;;;;;5054139;28;20029;-69
2022/08/07 01:55:37;;;;;;;10.07;2.70;;;;;;;;;;5053940;28;20041;-70
2022/08/07 01:58:06;;;;;;;6.65;2.30;;;;;;;;;;5035916;28;20025;-69
2022/08/07 02:00:33;;;;;;;5.63;2.90;;;;;;;;;;5054247;28;20027;-70
2022/08/07 02:03:00;;;;;;;5.07;2.47;;;;;;;;;;5054166;28;20021;-70
2022/08/07 02:05:53;;;;;;;4.35;2.28;;;;;;;;;;5053903;28;20036;-69
2022/08/07 02:08:21;;;;;;;6.68;2.58;;;;;;;;;;5051830;28;20033;-69
2022/08/07 02:10:51;;;;;;;4.95;2.17;;;;;;;;;;5054006;28;20035;-69
2022/08/07 02:13:18;;;;;;;3.03;2.10;;;;;;;;;;5035687;28;20048;-69
2022/08/07 02:15:44;;;;;;;5.40;2.40;;;;;;;;;;5053825;28;20370;-69
2022/08/07 02:18:12;;;;;;;4.32;2.30;;;;;;;;;;5053637;28;20013;-70
2022/08/07 02:20:39;;;;;;;7.55;2.70;;;;;;;;;;5054122;28;20029;-69
2022/08/07 02:23:05;;;;;;;4.65;2.15;;;;;;;;;;5053798;28;20027;-69
2022/08/07 02:25:33;;;;;;;6.93;2.35;;;;;;;;;;5053378;28;20389;-69
2022/08/07 02:28:01;;;;;;;6.18;2.50;;;;;;;;;;5053507;28;20025;-69
2022/08/07 02:30:27;;;;;;;5.20;2.15;;;;;;;;;;5053961;28;20035;-69
2022/08/07 02:32:53;;;;;;;5.25;2.33;;;;;;;;;;5053928;28;20021;-69
2022/08/07 02:35:20;;;;;;;8.60;3.17;;;;;;;;;;5053606;28;20029;-69
2022/08/07 02:37:47;;;;;;;2.90;2.05;;;;;;;;;;5053674;28;20025;-69
2022/08/07 02:40:13;;;;;;;6.93;2.42;;;;;;;;;;5053837;28;20462;-69
2022/08/07 02:42:41;;;;;;;5.35;2.58;;;;;;;;;;5053305;28;20066;-69
2022/08/07 02:45:08;;;;;;;3.95;2.40;;;;;;;;;;5053242;28;20393;-69
2022/08/07 02:47:35;;;;;;;4.07;2.40;;;;;;;;;;5053746;28;20028;-69
2022/08/07 02:50:01;;;;;;;4.50;2.30;;;;;;;;;;5053958;28;20016;-69
2022/08/07 02:52:32;;;;;;;6.43;2.33;;;;;;;;;;5053137;28;20029;-69
2022/08/07 02:55:01;;;;;;;4.60;2.35;;;;;;;;;;5052798;28;20045;-69
2022/08/07 02:57:28;;;;;;;5.55;2.15;;;;;;;;;;5053130;28;20505;-69
2022/08/07 02:59:54;;;;;;;6.63;2.50;;;;;;;;;;5052984;28;20104;-69
2022/08/07 03:02:20;;;;;;;4.13;2.40;;;;;;;;;;5053086;28;20025;-69
2022/08/07 03:04:47;;;;;;;4.70;2.17;;;;;;;;;;5053302;28;20359;-69
2022/08/07 03:07:14;;;;;;;3.35;2.20;;;;;;;;;;5053018;28;20384;-69
2022/08/07 03:09:41;;;;;;;3.60;2.38;;;;;;;;;;5053281;28;20428;-70
2022/08/07 03:12:08;;;;;;;4.80;2.22;;;;;;;;;;5035145;28;20090;-69
2022/08/07 03:14:35;;;;;;;5.80;2.20;;;;;;;;;;5052904;28;20032;-69
2022/08/07 03:17:02;;;;;;;5.32;2.47;;;;;;;;;;5052975;28;20108;-69
2022/08/07 03:19:28;;;;;;;5.78;2.80;;;;;;;;;;5052982;28;20025;-69
2022/08/07 03:21:55;;;;;;;3.42;1.92;;;;;;;;;;5052884;28;20462;-69
2022/08/07 03:24:21;;;;;;;6.88;2.50;;;;;;;;;;5052889;28;20041;-69
2022/08/07 03:26:50;;;;;;;3.97;2.15;;;;;;;;;;5053430;28;20029;-69
2022/08/07 03:29:17;;;;;;;6.55;2.33;;;;;;;;;;5052849;28;20028;-70
2022/08/07 03:31:44;;;;;;;5.07;2.60;;;;;;;;;;5052785;28;20055;-69
2022/08/07 03:34:12;;;;;;;6.35;2.50;;;;;;;;;;5052642;28;20017;-69
2022/08/07 03:36:39;;;;;;;5.35;2.00;;;;;;;;;;5053829;28;20438;-69
2022/08/07 03:39:07;;;;;;;5.28;2.13;;;;;;;;;;5056656;28;20427;-69
2022/08/07 03:41:33;;;;;;;6.07;2.17;;;;;;;;;;5056828;28;20074;-69
2022/08/07 03:44:00;;;;;;;5.45;2.25;;;;;;;;;;5056555;28;20094;-69
2022/08/07 03:46:26;;;;;;;2.80;2.15;;;;;;;;;;5056517;28;20029;-69
2022/08/07 03:48:52;;;;;;;9.20;2.75;;;;;;;;;;5056715;28;20033;-69
2022/08/07 03:51:19;;;;;;;5.05;2.30;;;;;;;;;;5056980;28;20032;-69
2022/08/07 03:53:46;;;;;;;4.55;2.30;;;;;;;;;;5056100;28;20136;-69
2022/08/07 03:56:13;;;;;;;4.70;2.53;;;;;;;;;;5038209;28;20025;-69
2022/08/07 03:58:39;;;;;;;4.55;2.33;;;;;;;;;;5056260;28;20028;-69
2022/08/07 04:01:05;;;;;;;3.33;2.10;;;;;;;;;;5056286;28;20025;-69
2022/08/07 04:03:32;;;;;;;3.85;2.15;;;;;;;;;;5056235;28;20393;-69
2022/08/07 04:05:58;;;;;;;4.82;2.03;;;;;;;;;;5056413;28;20543;-69
2022/08/07 04:08:24;;;;;;;5.60;2.03;;;;;;;;;;5056117;28;20039;-69
2022/08/07 04:10:50;;;;;;;4.45;2.20;;;;;;;;;;5056016;28;20108;-69
2022/08/07 04:13:17;;;;;;;5.40;2.47;;;;;;;;;;5056038;28;20036;-70
2022/08/07 04:15:43;;;;;;;4.28;2.20;;;;;;;;;;5056127;28;20531;-69
2022/08/07 04:18:11;;;;;;;5.82;2.40;;;;;;;;;;5038277;28;20362;-69
2022/08/07 04:20:37;;;;;;;4.30;2.20;;;;;;;;;;5056146;28;20051;-69
2022/08/07 04:23:04;;;;;;;3.78;2.10;;;;;;;;;;5055793;28;20025;-69
2022/08/07 04:25:30;;;;;;;3.28;1.92;;;;;;;;;;5056014;28;20052;-69
2022/08/07 04:27:56;;;;;;;5.18;2.35;;;;;;;;;;5055997;28;20033;-69
2022/08/07 04:30:22;;;;;;;4.80;2.22;;;;;;;;;;5055947;28;20027;-69
2022/08/07 04:32:49;;;;;;;4.95;2.03;;;;;;;;;;5055630;28;20125;-69
2022/08/07 04:35:15;;;;;;;4.55;2.35;;;;;;;;;;5055477;28;20030;-69
2022/08/07 04:37:41;;;;;;;3.90;2.20;;;;;;;;;;5055548;28;20025;-69
2022/08/07 04:40:07;;;;;;;5.25;2.55;;;;;;;;;;5055537;28;20021;-69
2022/08/07 04:42:33;;;;;;;5.78;2.38;;;;;;;;;;5055435;28;20108;-69
2022/08/07 04:45:01;;;;;;;6.60;2.20;;;;;;;;;;5055752;28;20063;-69
2022/08/07 04:47:27;;;;;;;4.68;2.10;;;;;;;;;;5055292;28;20036;-69
2022/08/07 04:50:03;;;;;;;4.18;2.08;;;;;;;;;;5055251;28;20021;-69
2022/08/07 04:52:35;;;;;;;3.83;1.98;;;;;;;;;;5055579;28;20538;-70
2022/08/07 04:55:18;;;;;;;3.65;2.13;;;;;;;;;;5054735;28;20069;-69
2022/08/07 04:57:49;;;;;;;3.55;1.88;;;;;;;;;;5037063;28;20021;-69
2022/08/07 05:00:19;;;;;;;4.30;2.13;;;;;;;;;;5055628;28;20074;-69
2022/08/07 05:02:54;;;;;;;3.33;1.95;;;;;;;;;;5055088;28;20074;-69
2022/08/07 05:05:26;;;;;;;4.55;2.00;;;;;;;;;;5036939;28;20029;-69
2022/08/07 05:07:52;;;;;;;4.93;2.50;;;;;;;;;;5055592;28;20104;-69
2022/08/07 05:10:28;;;;;;;3.97;2.20;;;;;;;;;;5037298;28;20059;-69
2022/08/07 05:13:00;;;;;;;5.35;2.13;;;;;;;;;;5055266;28;20063;-69
2022/08/07 05:15:30;;;;;;;6.20;2.60;;;;;;;;;;5054810;28;20366;-69
2022/08/07 05:17:58;;;;;;;4.05;2.67;;;;;;;;;;5055433;28;20017;-69
2022/08/07 05:20:25;;;;;;;4.57;2.20;;;;;;;;;;5055090;28;20025;-69
2022/08/07 05:22:54;;;;;;;6.55;2.75;;;;;;;;;;5055269;28;20469;-69
2022/08/07 05:25:21;;;;;;;3.88;2.00;;;;;;;;;;5054936;28;20473;-69
2022/08/07 05:27:48;;;;;;;4.50;2.28;;;;;;;;;;5054578;28;20032;-69
2022/08/07 05:30:15;;;;;;;5.50;2.25;;;;;;;;;;5054531;28;20476;-69
2022/08/07 05:32:41;;;;;;;7.25;2.25;;;;;;;;;;5054512;28;20491;-69
2022/08/07 05:35:10;;;;;;;5.13;2.53;;;;;;;;;;5054351;28;20025;-69
2022/08/07 05:37:37;;;;;;;4.10;2.00;;;;;;;;;;5054416;28;20059;-69
2022/08/07 05:40:03;;;;;;;4.95;2.42;;;;;;;;;;5054341;28;20366;-69
2022/08/07 05:42:29;;;;;;;4.93;2.33;;;;;;;;;;5054321;28;20025;-69
2022/08/07 05:44:55;;;;;;;4.22;2.30;;;;;;;;;;5054322;28;20054;-69
2022/08/07 05:47:22;;;;;;;5.80;2.58;;;;;;;;;;5054186;28;20033;-69
2022/08/07 05:49:49;;;;;;;4.93;2.40;;;;;;;;;;5054201;28;20032;-69
2022/08/07 05:52:14;;;;;;;6.80;2.10;;;;;;;;;;5054883;28;20493;-69
2022/08/07 05:54:41;;;;;;;6.18;2.58;;;;;;;;;;5053830;28;20041;-69
2022/08/07 05:57:07;;;;;;;5.43;2.40;;;;;;;;;;5054024;28;20025;-69
2022/08/07 05:59:37;;;;;;;5.75;2.50;;;;;;;;;;5053320;28;20025;-69
2022/08/07 06:02:05;;;;;;;4.40;2.35;;;;;;;;;;5053856;28;20028;-69
2022/08/07 06:04:33;;;;;;;4.10;2.28;;;;;;;;;;5053865;28;20029;-69
2022/08/07 06:07:04;;;;;;;4.47;2.15;;;;;;;;;;5054130;28;20047;-69
2022/08/07 06:09:31;;;;;;;4.25;2.10;;;;;;;;;;5054407;28;20362;-69
2022/08/07 06:11:57;;;;;;;6.75;2.22;;;;;;;;;;5053753;28;20390;-69
2022/08/07 06:14:24;;;;;;;3.50;1.60;;;;;;;;;;5053648;28;20111;-69
2022/08/07 06:16:51;;;;;;;2.95;1.50;;;;;;;;;;5053710;28;20029;-69
2022/08/07 06:19:17;;;;;;;4.38;1.60;;;;;;;;;;5035724;28;20025;-69
2022/08/07 06:21:44;;;;;;;4.68;1.90;;;;;;;;;;5053578;28;20032;-69
2022/08/07 06:24:10;;;;;;;2.40;1.60;;;;;;;;;;5053514;28;20055;-70
2022/08/07 06:26:38;;;;;;;3.40;1.70;;;;;;;;;;5053777;28;20028;-69
2022/08/07 06:29:04;;;;;;;3.50;1.73;;;;;;;;;;5054036;28;20543;-70
2022/08/07 06:31:30;;;;;;;3.72;1.73;;;;;;;;;;5053437;28;20029;-70
2022/08/07 06:33:56;;;;;;;4.18;1.98;;;;;;;;;;5053331;28;20493;-70
2022/08/07 06:36:25;;;;;;;4.15;1.92;;;;;;;;;;5053368;28;20025;-70
2022/08/07 06:38:52;;;;;;;3.17;1.63;;;;;;;;;;5053388;28;20497;-70
2022/08/07 06:41:20;;;;;;;3.78;2.08;;;;;;;;;;5053285;28;20036;-70
2022/08/07 06:43:46;;;;;;;4.30;1.80;;;;;;;;;;5053568;28;20047;-70
2022/08/07 06:46:13;;;;;;;3.42;1.92;;;;;;;;;;5053520;28;20032;-70
2022/08/07 06:48:39;;;;;;;5.07;1.90;;;;;;;;;;5053522;28;20021;-70
2022/08/07 06:51:07;;;;;;;3.13;1.60;;;;;;;;;;5053698;28;20064;-70
2022/08/07 06:53:35;;;;;;;4.70;1.58;;;;;;;;;;5053409;28;20127;-70
2022/08/07 06:56:03;;;;;;;6.47;2.63;;;;;;;;;;5053100;28;20573;-70
2022/08/07 06:58:29;;;;;;;5.78;3.00;;;;;;;;;;5053159;28;20025;-70
2022/08/07 07:00:55;;;;;;;6.82;3.83;;;;;;;;;;5053082;28;20021;-69
2022/08/07 07:03:21;;;;;;;8.77;3.40;;;;;;;;;;5053370;28;20021;-70
2022/08/07 07:05:48;;;;;;;6.82;3.30;;;;;;;;;;5053121;28;20057;-69
2022/08/07 07:08:14;;;;;;;4.93;2.20;;;;;;;;;;5053304;28;20025;-70
2022/08/07 07:10:40;;;;;;;5.85;2.33;;;;;;;;;;5054253;28;20108;-70
2022/08/07 07:13:12;;;;;;;4.75;2.30;;;;;;;;;;5057653;28;20037;-70
2022/08/07 07:15:40;;;;;;;6.10;2.50;;;;;;;;;;5057063;28;20154;-70
2022/08/07 07:18:12;;;;;;;2.28;1.90;;;;;;;;;;5057337;28;20386;-69
2022/08/07 07:21:07;;;;;;;4.05;1.70;;;;;;;;;;5057331;28;20052;-70
2022/08/07 07:23:34;;;;;;;4.00;1.90;;;;;;;;;;5047915;28;20064;-70
2022/08/07 07:26:01;;;;;;;5.28;1.52;;;;;;;;;;5056913;28;20545;-70
2022/08/07 07:28:31;;;;;;;5.15;1.40;;;;;;;;;;5056875;28;20051;-70
2022/08/07 07:31:00;;;;;;;3.22;1.50;;;;;;;;;;5056825;28;20036;-70
2022/08/07 07:33:27;;;;;;;6.15;1.90;;;;;;;;;;5057067;28;20021;-70
2022/08/07 07:35:55;;;;;;;2.53;1.55;;;;;;;;;;5056672;28;20033;-70
2022/08/07 07:38:24;;;;;;;2.22;1.48;;;;;;;;;;5056700;28;20025;-69
2022/08/07 07:40:51;;;;;;;3.42;1.95;;;;;;;;;;5057202;28;20480;-70
2022/08/07 07:43:17;;;;;;;2.78;1.88;;;;;;;;;;5056642;28;20075;-70
2022/08/07 07:45:45;;;;;;;1.88;1.60;;;;;;;;;;5056746;28;20025;-69
2022/08/07 07:48:13;;;;;;;2.20;1.52;;;;;;;;;;5056468;28;20028;-70
2022/08/07 07:50:40;;;;;;;3.33;1.47;;;;;;;;;;5056910;28;20482;-70
2022/08/07 07:53:09;;;;;;;3.65;1.73;;;;;;;;;;5056192;28;20025;-70
2022/08/07 07:55:35;;;;;;;2.08;1.67;;;;;;;;;;5056829;28;20428;-70
2022/08/07 07:58:02;;;;;;;3.85;1.90;;;;;;;;;;5056579;28;20207;-70
2022/08/07 08:00:28;;;;;;;4.32;1.88;;;;;;;;;;5038324;28;20018;-70
2022/08/07 08:02:56;;;;;;;2.13;1.63;;;;;;;;;;5056130;28;20029;-70
2022/08/07 08:05:23;;;;;;;2.53;1.50;;;;;;;;;;5056143;28;20025;-70
2022/08/07 08:07:50;;;;;;;4.68;1.65;;;;;;;;;;5056152;28;20080;-70
2022/08/07 08:10:16;;;;;;;3.08;1.70;;;;;;;;;;5056094;28;20025;-70
2022/08/07 08:12:43;;;;;;;4.38;1.70;;;;;;;;;;5056266;28;20033;-70
2022/08/07 08:15:09;;;;;;;4.35;1.55;;;;;;;;;;5056202;28;20035;-70
2022/08/07 08:17:36;;;;;;;4.15;1.85;;;;;;;;;;5055952;28;20025;-70
2022/08/07 08:20:03;;;;;;;3.53;1.35;;;;;;;;;;5037977;28;20440;-70
2022/08/07 08:28:03;;;;;;;3.50;1.42;;;;;;;;;;5056091;28;20035;-70
2022/08/07 08:30:30;;;;;;;1.33;1.23;;;;;;;;;;5055723;28;20100;-70
2022/08/07 08:32:58;;;;;;;4.68;1.52;;;;;;;;;;5055645;28;20025;-70
2022/08/07 08:35:26;;;;;;;3.80;1.75;;;;;;;;;;5037731;28;20025;-70
2022/08/07 08:37:56;;;;;;;5.22;1.45;;;;;;;;;;5055542;28;20025;-70
2022/08/07 08:40:41;;;;;;;3.30;1.65;;;;;;;;;;5056091;28;20116;-70
2022/08/07 08:43:26;;;;;;;2.60;1.50;;;;;;;;;;5055848;28;20075;-70
2022/08/07 08:46:04;;;;;;;3.90;1.50;;;;;;;;;;5055410;28;20108;-70
2022/08/07 08:48:36;;;;;;;4.00;1.48;;;;;;;;;;5055996;28;20051;-70
2022/08/07 08:51:07;;;;;;;4.43;1.58;;;;;;;;;;5055838;28;20013;-70
2022/08/07 08:53:46;;;;;;;7.22;1.88;;;;;;;;;;5055182;28;20053;-70
2022/08/07 08:56:19;;;;;;;4.03;1.80;;;;;;;;;;5055509;28;20025;-70
2022/08/07 08:58:52;;;;;;;2.35;1.60;;;;;;;;;;5055168;28;20029;-70
2022/08/07 09:01:42;;;;;;;1.75;1.40;;;;;;;;;;5055402;28;20070;-70
2022/08/07 09:04:26;;;;;;;3.72;1.88;;;;;;;;;;5055654;28;20045;-70
2022/08/07 09:07:01;;;;;;;3.80;1.60;;;;;;;;;;5054960;28;20029;-70
2022/08/07 09:09:47;;;;;;;2.40;1.50;;;;;;;;;;5055235;28;20036;-70
2022/08/07 09:12:16;;;;;;;3.65;1.80;;;;;;;;;;5055018;28;20420;-70
2022/08/07 09:15:00;;;;;;;4.40;2.20;;;;;;;;;;5054787;28;20543;-70
2022/08/07 09:17:26;;;;;;;5.20;1.95;;;;;;;;;;5055374;28;20021;-70
2022/08/07 09:19:56;;;;;;;5.00;1.75;;;;;;;;;;5055010;28;20112;-70
2022/08/07 09:22:37;;;;;;;1.70;1.60;;;;;;;;;;5036881;28;20052;-70
2022/08/07 09:25:06;;;;;;;4.30;1.58;;;;;;;;;;5054680;28;20481;-70
2022/08/07 09:27:35;;;;;;;2.88;1.45;;;;;;;;;;5054621;28;20393;-70
2022/08/07 09:30:06;;;;;;;3.25;1.73;;;;;;;;;;5036692;28;20033;-70
2022/08/07 09:32:44;;;;;;;4.68;1.63;;;;;;;;;;5055010;28;20029;-70
2022/08/07 09:35:27;;;;;;;5.13;1.88;;;;;;;;;;5053322;28;20025;-70
2022/08/07 09:38:10;;;;;;;3.90;1.55;;;;;;;;;;5055009;28;20025;-70
2022/08/07 09:40:52;;;;;;;2.20;1.50;;;;;;;;;;5036245;28;20025;-70
2022/08/07 09:43:25;;;;;;;4.53;1.73;;;;;;;;;;5054606;28;20485;-70
2022/08/07 09:45:51;;;;;;;3.83;1.60;;;;;;;;;;5054641;28;20040;-70
2022/08/07 09:48:27;;;;;;;2.47;1.60;;;;;;;;;;5054258;28;20393;-70
2022/08/07 09:51:05;;;;;;;5.80;1.77;;;;;;;;;;5054731;28;20029;-70
2022/08/07 09:53:36;;;;;;;4.43;1.67;;;;;;;;;;5054223;28;20036;-70
2022/08/07 09:56:12;;;;;;;2.22;1.20;;;;;;;;;;5054322;28;20028;-70
2022/08/07 09:58:39;;;;;;;5.32;1.60;;;;;;;;;;5054051;28;20096;-70
2022/08/07 10:01:12;;;;;;;5.00;1.60;;;;;;;;;;5053951;28;20028;-70
2022/08/07 10:03:56;;;;;;;3.38;1.65;;;;;;;;;;5054012;28;20013;-70
2022/08/07 10:06:25;;;;;;;3.10;1.60;;;;;;;;;;5054372;28;20032;-70
2022/08/07 10:08:51;;;;;;;3.22;1.58;;;;;;;;;;5053898;28;20092;-70
2022/08/07 10:11:36;;;;;;;4.13;1.25;;;;;;;;;;5053758;28;20035;-70
2022/08/07 10:14:02;;;;;;;2.35;1.42;;;;;;;;;;5054206;28;20067;-70
2022/08/07 10:16:40;;;;;;;2.50;1.70;;;;;;;;;;5053743;28;20055;-70
2022/08/07 10:19:12;;;;;;;5.72;1.60;;;;;;;;;;5053684;28;20028;-70
2022/08/07 10:21:44;;;;;;;2.50;1.65;;;;;;;;;;5053610;28;20103;-70
2022/08/07 10:24:13;;;;;;;2.83;1.50;;;;;;;;;;5035684;28;20017;-70
2022/08/07 10:26:48;;;;;;;3.10;1.90;;;;;;;;;;5053833;28;20028;-70
2022/08/07 10:29:25;;;;;;;2.83;1.90;;;;;;;;;;5053741;28;20063;-70
2022/08/07 10:32:10;;;;;;;3.22;1.73;;;;;;;;;;5053756;28;20031;-70
2022/08/07 10:34:39;;;;;;;3.83;1.80;;;;;;;;;;5053297;28;20021;-70
2022/08/07 10:37:24;;;;;;;3.73;1.70;;;;;;;;;;5053925;28;20049;-70
2022/08/07 10:40:01;;;;;;;3.30;1.52;;;;;;;;;;5053366;28;20056;-70
2022/08/07 10:42:30;;;;;;;4.00;1.90;;;;;;;;;;5053676;28;20020;-70
2022/08/07 10:45:00;;;;;;;4.25;1.77;;;;;;;;;;5053606;28;20060;-70
2022/08/07 10:47:26;;;;;;;3.03;1.50;;;;;;;;;;5053643;28;20483;-70
2022/08/07 10:49:59;;;;;;;2.55;1.50;;;;;;;;;;5053503;28;20055;-70
2022/08/07 10:52:32;;;;;;;3.55;1.40;;;;;;;;;;5054209;28;20032;-70
2022/08/07 10:55:18;;;;;;;3.67;1.50;;;;;;;;;;5052774;28;20060;-70
2022/08/07 10:58:00;;;;;;;4.13;1.90;;;;;;;;;;5028706;28;20559;-70
2022/08/07 11:00:30;;;;;;;5.28;1.95;;;;;;;;;;5053502;28;20021;-70
2022/08/07 11:02:56;;;;;;;;;;;;;;;;;;5054046;28;20437;-70
2022/08/07 11:05:30;;;;;;;3.75;2.17;;;;;;;;;;5053067;28;19909;-70
2022/08/07 11:07:59;;;;;;;4.22;1.48;;;;;;;;;;5053312;28;20063;-70
2022/08/07 11:10:29;;;;;;;4.72;1.65;;;;;;;;;;5053281;28;20469;-70
2022/08/07 11:13:01;;;;;;;3.53;1.77;;;;;;;;;;5052669;28;20051;-70
2022/08/07 11:15:30;;;;;;;5.80;1.80;;;;;;;;;;5053215;28;20036;-70
2022/08/07 11:17:56;;;;;;;3.03;1.55;;;;;;;;;;5052987;28;20021;-70
2022/08/07 11:20:24;;;;;;;3.90;1.63;;;;;;;;;;5052928;28;20436;-70
2022/08/07 11:23:11;;;;;;;2.50;1.52;;;;;;;;;;5053413;28;20016;-70
2022/08/07 11:25:43;;;;;;;3.92;1.75;;;;;;;;;;5053235;28;20063;-70
2022/08/07 11:28:23;;;;;;;8.77;1.98;;;;;;;;;;5053136;28;20021;-70
2022/08/07 11:30:53;;;;;;;2.15;1.40;;;;;;;;;;5053384;28;20025;-70
2022/08/07 11:33:34;;;;;;;1.63;1.33;;;;;;;;;;5053164;28;20025;-70
2022/08/07 11:36:16;;;;;;;3.78;1.63;;;;;;;;;;5053047;28;20112;-70
2022/08/07 11:38:42;;;;;;;1.60;1.20;;;;;;;;;;5053603;28;20024;-70
2022/08/07 11:41:13;;;;;;;6.40;1.50;;;;;;;;;;5053058;28;20091;-70
2022/08/07 11:43:44;;;;;;;3.45;1.63;;;;;;;;;;5052804;28;20017;-70
2022/08/07 11:46:29;;;;;;;1.77;1.38;;;;;;;;;;5052988;28;20108;-70
2022/08/07 11:48:58;;;;;;;1.95;1.33;;;;;;;;;;5034788;28;20078;-70
2022/08/07 11:51:27;;;;;;;2.67;1.30;;;;;;;;;;5053743;28;20074;-70
2022/08/07 11:53:53;;;;;;;3.20;1.50;;;;;;;;;;5052637;28;20505;-70
2022/08/07 11:56:31;;;;;;;1.92;1.38;;;;;;;;;;5052502;28;20036;-70
2022/08/07 11:59:12;;;;;;;5.20;1.85;;;;;;;;;;5055673;28;20025;-70
2022/08/07 12:02:01;;;;;;;2.13;1.40;;;;;;;;;;5056769;28;20056;-70
2022/08/07 12:04:33;;;;;;;1.40;1.30;;;;;;;;;;5056361;28;20447;-70
2022/08/07 12:07:01;;;;;;;2.30;1.38;;;;;;;;;;5056509;28;20029;-70
2022/08/07 12:09:27;;;;;;;2.92;1.30;;;;;;;;;;5056128;28;20112;-70
2022/08/07 12:11:53;;;;;;;2.00;1.20;;;;;;;;;;5056094;28;20106;-70
2022/08/07 12:14:21;;;;;;;8.65;1.48;;;;;;;;;;5056274;28;20025;-70
2022/08/07 12:17:07;;;;;;;3.55;1.63;;;;;;;;;;5055983;28;20025;-70
2022/08/07 12:19:41;;;;;;;1.67;1.35;;;;;;;;;;5055846;28;20032;-70
2022/08/07 12:22:16;;;;;;;2.58;1.52;;;;;;;;;;5056468;28;20025;-70
2022/08/07 12:27:47;;;;;;;3.22;1.58;;;;;;;;;;5055856;28;20517;-70
2022/08/07 12:30:14;;;;;;;2.90;1.50;;;;;;;;;;5055775;28;20115;-70
2022/08/07 12:32:47;;;;;;;1.40;1.30;;;;;;;;;;5055708;28;20032;-70
2022/08/07 12:35:14;;;;;;;1.73;1.20;;;;;;;;;;5056177;28;20035;-70
2022/08/07 12:37:41;;;;;;;2.83;1.40;;;;;;;;;;5055894;28;20028;-70
2022/08/07 12:40:09;;;;;;;5.18;1.35;;;;;;;;;;5055563;28;20370;-70
2022/08/07 12:42:36;;;;;;;3.78;1.30;;;;;;;;;;5055785;28;20021;-70
2022/08/07 12:45:25;;;;;;;2.40;1.00;;;;;;;;;;5055423;28;20033;-70
2022/08/07 12:47:58;;;;;;;2.22;1.48;;;;;;;;;;5049938;28;20037;-70
2022/08/07 12:50:41;;;;;;;3.42;1.70;;;;;;;;;;5055328;28;20025;-70
2022/08/07 12:53:14;;;;;;;2.13;1.23;;;;;;;;;;5056012;28;20021;-70
2022/08/07 12:55:43;;;;;;;3.13;1.25;;;;;;;;;;5055806;28;20488;-70
2022/08/07 12:58:11;;;;;;;4.47;1.50;;;;;;;;;;5055596;28;20025;-70
2022/08/07 13:00:48;;;;;;;3.47;1.48;;;;;;;;;;5055095;28;20028;-70
2022/08/07 13:03:18;;;;;;;1.55;1.10;;;;;;;;;;5055719;28;20104;-70
2022/08/07 13:05:57;;;;;;;3.50;1.43;;;;;;;;;;5037230;28;20082;-70
2022/08/07 13:08:23;;;;;;;2.90;1.40;;;;;;;;;;5055356;28;20252;-70
2022/08/07 13:11:02;;;;;;;3.03;1.30;;;;;;;;;;5054977;28;20504;-70
2022/08/07 13:13:33;;;;;;;1.17;1.10;;;;;;;;;;5055273;28;20028;-70
2022/08/07 13:15:59;;;;;;;2.55;1.58;;;;;;;;;;5054878;28;20028;-70
2022/08/07 13:18:44;;;;;;;2.58;1.17;;;;;;;;;;5055097;28;20052;-70
2022/08/07 13:21:14;;;;;;;2.72;1.42;;;;;;;;;;5054798;28;20020;-70
2022/08/07 13:24:12;;;;;;;1.63;1.10;;;;;;;;;;5054745;28;20481;-70
2022/08/07 13:26:56;;;;;;;2.40;0.95;;;;;;;;;;5032028;28;20098;-70
2022/08/07 13:29:26;;;;;;;1.48;1.13;;;;;;;;;;5054654;28;20131;-70
2022/08/07 13:31:55;;;;;;;1.85;1.33;;;;;;;;;;5036771;28;20064;-70
2022/08/07 13:34:21;;;;;;;3.65;1.38;;;;;;;;;;5054776;28;20075;-70
2022/08/07 13:36:50;;;;;;;4.32;1.40;;;;;;;;;;5054771;28;20024;-70
2022/08/07 13:39:35;;;;;;;3.20;1.30;;;;;;;;;;5054452;28;20013;-70
2022/08/07 13:42:01;;;;;;;1.75;1.10;;;;;;;;;;5054575;28;20135;-70
2022/08/07 13:44:32;;;;;;;3.45;1.35;;;;;;;;;;5054651;28;20029;-70
2022/08/07 13:46:58;;;;;;;1.70;1.40;;;;;;;;;;5054915;28;20075;-70
2022/08/07 13:49:26;;;;;;;3.03;1.33;;;;;;;;;;5054550;28;20028;-70
2022/08/07 13:51:53;;;;;;;2.00;1.17;;;;;;;;;;5055003;28;20087;-70
2022/08/07 13:54:21;;;;;;;2.28;1.30;;;;;;;;;;5053984;28;20080;-70
2022/08/07 13:56:47;;;;;;;2.05;1.40;;;;;;;;;;5054067;28;20021;-70
2022/08/07 13:59:16;;;;;;;1.50;1.20;;;;;;;;;;5054041;28;20053;-70
2022/08/07 14:01:44;;;;;;;1.80;1.25;;;;;;;;;;5053985;28;20049;-70
2022/08/07 14:04:12;;;;;;;3.63;1.60;;;;;;;;;;5053962;28;20059;-70
2022/08/07 14:06:43;;;;;;;2.30;1.38;;;;;;;;;;5054252;28;20031;-70
2022/08/07 14:09:15;;;;;;;2.28;1.40;;;;;;;;;;5053909;28;20021;-70
2022/08/07 14:11:45;;;;;;;1.98;1.20;;;;;;;;;;5054157;28;20385;-70
2022/08/07 14:14:13;;;;;;;3.28;1.42;;;;;;;;;;5053979;28;20028;-70
2022/08/07 14:16:41;;;;;;;1.98;1.40;;;;;;;;;;5053775;28;20031;-70
2022/08/07 14:19:16;;;;;;;2.78;1.75;;;;;;;;;;5054015;28;20485;-70
2022/08/07 14:21:44;;;;;;;2.58;1.27;;;;;;;;;;5053657;28;20059;-70
2022/08/07 14:24:24;;;;;;;2.53;1.70;;;;;;;;;;5053736;28;20028;-70
2022/08/07 14:26:54;;;;;;;3.47;1.55;;;;;;;;;;5054188;28;20385;-70
2022/08/07 14:29:33;;;;;;;1.90;1.40;;;;;;;;;;5053614;28;20036;-70
2022/08/07 14:32:00;;;;;;;2.20;1.50;;;;;;;;;;5053866;28;20013;-70
2022/08/07 14:34:31;;;;;;;2.40;1.50;;;;;;;;;;5054002;28;20107;-70
2022/08/07 14:36:59;;;;;;;4.10;1.65;;;;;;;;;;5053753;28;20025;-70
2022/08/07 14:39:25;;;;;;;2.70;1.50;;;;;;;;;;5053412;28;20021;-70
2022/08/07 14:41:52;;;;;;;3.20;1.80;;;;;;;;;;5053941;28;20047;-70
2022/08/07 14:44:19;;;;;;;2.45;1.60;;;;;;;;;;5053608;28;20032;-70
2022/08/07 14:46:45;;;;;;;2.00;1.67;;;;;;;;;;5053557;28;20473;-70
2022/08/07 14:49:12;;;;;;;3.80;1.77;;;;;;;;;;5053286;28;20021;-70
2022/08/07 14:51:44;;;;;;;2.35;1.52;;;;;;;;;;5053275;28;20028;-70
2022/08/07 14:54:14;;;;;;;2.42;1.80;;;;;;;;;;5053181;28;20045;-70
2022/08/07 14:56:41;;;;;;;3.22;1.70;;;;;;;;;;5053186;28;20473;-70
2022/08/07 14:59:11;;;;;;;3.03;1.80;;;;;;;;;;5053154;28;20025;-70
2022/08/07 15:01:40;;;;;;;3.53;1.80;;;;;;;;;;5053085;28;20025;-70
2022/08/07 15:04:06;;;;;;;;;;;;;;;;;;5053545;28;20053;-70
2022/08/07 15:06:34;;;;;;;2.58;1.67;;;;;;;;;;5053161;28;20380;-70